Cleveland, VA (24225)

7:39 AM EDT on August 20, 2014 (GMT -0400)
My Side Of The Mountain | Change Station
CLOSE
Current Station
Personal Weather Station
Location: Lebanon, VA
Elevation: 2480 ft
Nearby Weather Stations
Active Advisory: Special Statement

Elev 2480 ft 36.85 °N, 82.12 °W | Updated 9 seconds ago

Overcast
Overcast
68.1 °F
Feels Like 68.1 °F
N
0.0
Wind Variable Wind from ENE
Gusts 1.0 mph

Today
High -- | Low -- °F
--% Chance of Precip.
Yesterday
High -- | Low -- °F
Precip. -- in
6:49 AM 8:13 PM
Waning Crescent, 22% visible
Pressure 30.06 in
Visibility 2.0 miles
Clouds Mostly Cloudy 800 ft
Overcast 3500 ft
Dew Point 68 °F
Humidity 100%
Rainfall 0.00 in
Snow Depth Not available.
UV 0 out of 12
Pollen 8.20 out of 12
Air Quality Not available.
Flu Activity Not available.
METAR KJFZ 201135Z AUTO 14003KT 2SM BR BKN008 OVC035 21/20 A3006 RMK AO2 VIS 3/4V5 LTG DSNT W THRU NE T02110201

More Conditions Fewer Conditions

Pressure 30.06 in
Visibility 2.0 miles
Clouds Mostly Cloudy 800 ft
Overcast 3500 ft
Dew Point 68 °F
Humidity 100%
Rainfall 0.00 in
Snow Depth Not available.
UV 0 out of 12
Pollen 8.20 out of 12
Air Quality Not available.
Flu Activity Not available.
METAR KJFZ 201135Z AUTO 14003KT 2SM BR BKN008 OVC035 21/20 A3006 RMK AO2 VIS 3/4V5 LTG DSNT W THRU NE T02110201

More Conditions Fewer Conditions

10-Day Weather Forecast

Almanac

Astronomy

Aug. 20, 2014 Rise Set
Actual Time 6:49 AM EDT 8:13 PM EDT
Civil Twilight 6:22 AM EDT 8:40 PM EDT
Nautical Twilight 5:49 AM EDT 9:13 PM EDT
Astronomical Twilight 5:15 AM EDT 9:47 PM EDT
Moon 2:30 AM EDT 4:55 PM EDT
Length of Visible Light 14h 18m
Length of Day
13h 24m
Tomorrow will be 2m 9s shorter.
Waning Crescent, 22% of the Moon is Illuminated
Today
Waning Crescent
Aug 25
New
Sep 2
First Quarter
Sep 8
Full
Sep 15
Last Quarter

Today's Extremes

State Highs State Lows

Community

WunderPhotos

Upload Photos

1,745,611 photos uploaded!

Nearby

Snow Depth

Station Depth Elevation
No new snow has been reported.

Earthquake Activity

City Distance Mag. Time & Date
No recent earthquake activity has been reported nearby.
Minimum magnitude displayed is 2.5.

Coastal Water Temperatures

Place Temperature
No Stations Reporting

Nearby Weather Stations